Time;durP1;ratioP1;P1;durP2;ratioP2;P2;SDS_P1;SDS_P2;PMS_P1;PMS_P2;Temp;Humidity;BMP_temperature;BMP_pressure;BME280_temperature;BME280_humidity;BME280_pressure;Samples;Min_cycle;Max_cycle;Signal;HPM_P1;HPM_P2
2023/05/30 00:00:19;;;;;;;;;;;;;;;17.45;100.00;99382.44;5032107;28;815;-63
2023/05/30 00:02:46;;;;;;;;;;;;;;;17.41;100.00;99385.38;5032032;28;847;-63
2023/05/30 00:05:13;;;;;;;;;;;;;;;17.41;100.00;99387.38;5032034;28;812;-65
2023/05/30 00:07:40;;;;;;;;;;;;;;;17.34;100.00;99386.41;5032247;28;922;-64
2023/05/30 00:10:07;;;;;;;;;;;;;;;17.31;100.00;99381.75;5031975;28;1300;-64
2023/05/30 00:12:35;;;;;;;;;;;;;;;17.31;100.00;99387.34;5032091;28;820;-66
2023/05/30 00:15:02;;;;;;;;;;;;;;;17.29;100.00;99387.03;5031729;28;1970;-63
2023/05/30 00:17:29;;;;;;;;;;;;;;;17.30;100.00;99387.81;5032098;28;891;-65
2023/05/30 00:19:56;;;;;;;;;;;;;;;17.28;100.00;99393.88;5031744;28;879;-64
2023/05/30 00:22:23;;;;;;;;;;;;;;;17.26;100.00;99398.34;5031766;28;836;-64
2023/05/30 00:24:51;;;;;;;;;;;;;;;17.26;100.00;99398.34;5031626;28;903;-65
2023/05/30 00:27:17;;;;;;;;;;;;;;;17.22;100.00;99389.31;5031658;28;844;-63
2023/05/30 00:29:45;;;;;;;;;;;;;;;17.23;100.00;99397.25;5031697;28;856;-63
2023/05/30 00:32:13;;;;;;;;;;;;;;;17.24;100.00;99398.81;5031525;28;871;-63
2023/05/30 00:34:40;;;;;;;;;;;;;;;17.25;100.00;99396.78;5031558;28;1894;-64
2023/05/30 00:37:08;;;;;;;;;;;;;;;17.23;100.00;99404.84;5031608;28;867;-64
2023/05/30 00:39:35;;;;;;;;;;;;;;;17.24;100.00;99407.19;5030257;28;1160;-63
2023/05/30 00:42:03;;;;;;;;;;;;;;;17.25;100.00;99402.38;5031616;28;871;-63
2023/05/30 00:44:30;;;;;;;;;;;;;;;17.22;100.00;99408.84;5031466;28;1188;-63
2023/05/30 00:46:56;;;;;;;;;;;;;;;17.18;100.00;99403.44;5031492;28;824;-64
2023/05/30 00:49:24;;;;;;;;;;;;;;;17.19;100.00;99404.19;5031404;28;883;-65
2023/05/30 00:51:51;;;;;;;;;;;;;;;17.18;100.00;99409.00;5031425;28;867;-64
2023/05/30 00:54:18;;;;;;;;;;;;;;;17.18;100.00;99406.22;5031176;28;1907;-65
2023/05/30 00:56:46;;;;;;;;;;;;;;;17.22;100.00;99406.06;5034595;28;878;-64
2023/05/30 00:59:13;;;;;;;;;;;;;;;17.24;100.00;99411.97;5035484;28;880;-63
2023/05/30 01:01:42;;;;;;;;;;;;;;;17.23;100.00;99410.44;5035434;28;867;-65
2023/05/30 01:04:10;;;;;;;;;;;;;;;17.23;100.00;99418.81;5035466;28;859;-63
2023/05/30 01:06:39;;;;;;;;;;;;;;;17.22;100.00;99417.25;5035344;28;907;-64
2023/05/30 01:09:06;;;;;;;;;;;;;;;17.22;100.00;99414.44;5035461;28;1002;-64
2023/05/30 01:11:33;;;;;;;;;;;;;;;17.21;100.00;99410.88;5035058;28;1348;-64
2023/05/30 01:14:04;;;;;;;;;;;;;;;17.20;100.00;99411.34;5035407;28;1918;-64
2023/05/30 01:16:32;;;;;;;;;;;;;;;17.19;100.00;99416.16;5035335;28;1044;-64
2023/05/30 01:19:21;;;;;;;;;;;;;;;17.23;100.00;99416.00;5035182;28;842;-65
2023/05/30 01:21:54;;;;;;;;;;;;;;;17.16;100.00;99411.47;5034921;28;1363;-64
2023/05/30 01:24:30;;;;;;;;;;;;;;;17.08;100.00;99413.75;5034990;28;847;-65
2023/05/30 01:27:24;;;;;;;;;;;;;;;17.04;100.00;99421.50;5034927;28;799;-64
2023/05/30 01:29:51;;;;;;;;;;;;;;;17.04;100.00;99415.13;5031763;28;1132;-64
2023/05/30 01:32:18;;;;;;;;;;;;;;;17.09;100.00;99420.91;5034894;28;828;-65
2023/05/30 01:34:45;;;;;;;;;;;;;;;17.09;100.00;99412.53;5034769;28;1893;-64
2023/05/30 01:37:12;;;;;;;;;;;;;;;17.03;100.00;99410.78;5034809;28;887;-64
2023/05/30 01:39:40;;;;;;;;;;;;;;;16.96;100.00;99413.84;5034804;28;894;-63
2023/05/30 01:42:25;;;;;;;;;;;;;;;16.95;100.00;99410.28;5034745;28;836;-63
2023/05/30 01:45:12;;;;;;;;;;;;;;;16.91;100.00;99415.97;5034848;28;878;-64
2023/05/30 01:47:44;;;;;;;;;;;;;;;16.91;100.00;99412.41;5034699;28;1189;-64
2023/05/30 01:50:20;;;;;;;;;;;;;;;16.84;100.00;99407.88;5034588;28;816;-64
2023/05/30 01:52:54;;;;;;;;;;;;;;;16.78;100.00;99404.09;5034394;28;1886;-63
2023/05/30 01:55:23;;;;;;;;;;;;;;;16.77;100.00;99410.91;5034768;28;875;-64
2023/05/30 01:57:51;;;;;;;;;;;;;;;16.80;100.00;99412.81;5034397;28;898;-64
2023/05/30 02:00:18;;;;;;;;;;;;;;;16.79;100.00;99413.22;5034397;28;824;-62
2023/05/30 02:02:45;;;;;;;;;;;;;;;16.77;100.00;99415.69;5034302;28;848;-65
2023/05/30 02:05:12;;;;;;;;;;;;;;;16.73;100.00;99415.84;5034324;28;828;-63
2023/05/30 02:07:39;;;;;;;;;;;;;;;16.72;100.00;99415.03;5034100;28;797;-64
2023/05/30 02:10:06;;;;;;;;;;;;;;;16.73;100.00;99416.63;5034190;28;1242;-63
2023/05/30 02:12:32;;;;;;;;;;;;;;;16.74;100.00;99415.38;5034143;28;860;-64
2023/05/30 02:14:59;;;;;;;;;;;;;;;16.81;100.00;99424.75;5034005;28;1902;-63
2023/05/30 02:17:26;;;;;;;;;;;;;;;16.82;100.00;99421.50;5034038;28;895;-64
2023/05/30 02:19:54;;;;;;;;;;;;;;;16.85;100.00;99422.59;5033886;28;1168;-64
2023/05/30 02:22:21;;;;;;;;;;;;;;;16.83;100.00;99422.28;5033913;28;808;-65
2023/05/30 02:24:48;;;;;;;;;;;;;;;16.81;100.00;99419.16;5033846;28;848;-64
2023/05/30 02:27:15;;;;;;;;;;;;;;;16.81;100.00;99425.53;5033850;28;919;-63
2023/05/30 02:29:42;;;;;;;;;;;;;;;16.85;100.00;99426.16;5033813;28;891;-64
2023/05/30 02:32:08;;;;;;;;;;;;;;;16.79;100.00;99433.56;5034124;28;844;-64
2023/05/30 02:34:36;;;;;;;;;;;;;;;16.79;100.00;99435.56;5033708;28;1913;-63
2023/05/30 02:37:03;;;;;;;;;;;;;;;16.79;100.00;99430.78;5033605;28;962;-63
2023/05/30 02:39:29;;;;;;;;;;;;;;;16.79;100.00;99433.56;5033700;28;815;-64
2023/05/30 02:41:57;;;;;;;;;;;;;;;16.74;100.00;99431.34;5033585;28;832;-65
2023/05/30 02:44:24;;;;;;;;;;;;;;;16.70;100.00;99433.47;5033516;28;881;-65
2023/05/30 02:46:51;;;;;;;;;;;;;;;16.66;100.00;99428.03;5033612;28;784;-64
2023/05/30 02:49:18;;;;;;;;;;;;;;;16.63;100.00;99436.53;5033496;28;871;-64
2023/05/30 02:51:45;;;;;;;;;;;;;;;16.63;100.00;99433.75;5033526;28;875;-64
2023/05/30 02:54:12;;;;;;;;;;;;;;;16.60;100.00;99437.41;5033378;28;1909;-63
2023/05/30 02:56:39;;;;;;;;;;;;;;;16.57;100.00;99432.75;5033391;28;883;-64
2023/05/30 02:59:05;;;;;;;;;;;;;;;16.55;100.00;99433.22;5033288;28;1072;-64
2023/05/30 03:01:32;;;;;;;;;;;;;;;16.56;100.00;99443.16;5033326;28;903;-64
2023/05/30 03:03:58;;;;;;;;;;;;;;;16.59;100.00;99441.47;5031993;28;1347;-64
2023/05/30 03:06:25;;;;;;;;;;;;;;;16.63;100.00;99445.69;5033253;28;914;-64
2023/05/30 03:09:00;;;;;;;;;;;;;;;16.67;100.00;99449.13;5033394;28;1069;-64
2023/05/30 03:11:27;;;;;;;;;;;;;;;16.69;100.00;99441.06;5032896;28;1086;-64
2023/05/30 03:13:54;;;;;;;;;;;;;;;16.73;100.00;99441.72;5032938;28;1914;-64
2023/05/30 03:16:21;;;;;;;;;;;;;;;16.80;100.00;99453.88;5032985;28;812;-63
2023/05/30 03:18:51;;;;;;;;;;;;;;;16.89;100.00;99449.16;5032343;28;871;-62
2023/05/30 03:21:17;;;;;;;;;;;;;;;16.98;100.00;99456.81;5031609;28;1184;-63
2023/05/30 03:23:44;;;;;;;;;;;;;;;17.06;100.00;99452.53;5032618;28;865;-63
2023/05/30 03:26:11;;;;;;;;;;;;;;;17.12;100.00;99461.09;5032782;28;824;-63
2023/05/30 03:28:38;;;;;;;;;;;;;;;17.15;100.00;99474.13;5032688;28;828;-65
2023/05/30 03:31:05;;;;;;;;;;;;;;;17.18;100.00;99469.69;5032683;28;879;-64
2023/05/30 03:33:32;;;;;;;;;;;;;;;17.21;100.00;99471.53;5032469;28;1914;-64
2023/05/30 03:35:59;;;;;;;;;;;;;;;17.23;100.00;99467.06;5032624;28;895;-64
2023/05/30 03:38:26;;;;;;;;;;;;;;;17.28;100.00;99474.06;5032830;28;816;-64
2023/05/30 03:40:52;;;;;;;;;;;;;;;17.33;100.00;99479.84;5032444;28;820;-64
2023/05/30 03:43:20;;;;;;;;;;;;;;;17.39;100.00;99484.81;5032464;28;804;-63
2023/05/30 03:45:47;;;;;;;;;;;;;;;17.44;100.00;99473.84;5032415;28;843;-63
2023/05/30 03:48:13;;;;;;;;;;;;;;;17.49;100.00;99480.84;5032284;28;880;-63
2023/05/30 03:50:40;;;;;;;;;;;;;;;17.56;100.00;99475.00;5032311;28;863;-65
2023/05/30 03:53:07;;;;;;;;;;;;;;;17.60;100.00;99477.66;5032028;28;1886;-64
2023/05/30 03:55:34;;;;;;;;;;;;;;;17.68;100.00;99473.34;5032110;28;911;-64
2023/05/30 03:58:01;;;;;;;;;;;;;;;17.79;100.00;99479.28;5032098;28;863;-63
2023/05/30 04:00:27;;;;;;;;;;;;;;;17.86;100.00;99481.84;5032171;28;879;-62
2023/05/30 04:02:54;;;;;;;;;;;;;;;17.93;100.00;99481.53;5032104;28;859;-62
2023/05/30 04:05:21;;;;;;;;;;;;;;;18.01;100.00;99481.25;5032006;28;852;-64
2023/05/30 04:07:47;;;;;;;;;;;;;;;18.07;100.00;99482.19;5032014;28;816;-63
2023/05/30 04:10:14;;;;;;;;;;;;;;;18.14;100.00;99485.50;5031945;28;1349;-63
2023/05/30 04:12:41;;;;;;;;;;;;;;;18.18;100.00;99471.38;5032131;28;804;-63
2023/05/30 04:15:12;;;;;;;;;;;;;;;18.23;100.00;99481.94;5031741;28;1903;-63
2023/05/30 04:17:40;;;;;;;;;;;;;;;18.29;100.00;99482.13;5031916;28;836;-64
2023/05/30 04:20:09;;;;;;;;;;;;;;;18.30;100.00;99473.22;5031801;28;848;-62
2023/05/30 04:22:36;;;;;;;;;;;;;;;18.35;100.00;99481.03;5031696;28;813;-63
2023/05/30 04:25:04;;;;;;;;;;;;;;;18.37;100.00;99480.56;5031735;28;911;-62
2023/05/30 04:27:32;;;;;;;;;;;;;;;18.41;100.00;99486.00;5031905;28;835;-64
2023/05/30 04:30:02;;;;;;;;;;;;;;;18.43;100.00;99486.31;5030816;28;824;-64
2023/05/30 04:32:33;;;;;;;;;;;;;;;18.50;100.00;99481.22;5031807;28;895;-65
2023/05/30 04:35:02;;;;;;;;;;;;;;;18.56;100.00;99482.16;5031547;28;1878;-64
2023/05/30 04:37:29;;;;;;;;;;;;;;;18.68;100.00;99490.84;5031526;28;915;-65
2023/05/30 04:39:56;;;;;;;;;;;;;;;18.76;100.00;99495.69;5031542;28;892;-63
2023/05/30 04:42:28;;;;;;;;;;;;;;;18.86;100.00;99495.69;5031471;28;938;-64
2023/05/30 04:44:55;;;;;;;;;;;;;;;18.95;100.00;99499.28;5031453;28;871;-64
2023/05/30 04:47:24;;;;;;;;;;;;;;;19.05;100.00;99491.63;5031550;28;808;-63
2023/05/30 04:49:53;;;;;;;;;;;;;;;19.12;100.00;99496.94;5031383;28;945;-63
2023/05/30 04:52:21;;;;;;;;;;;;;;;19.23;100.00;99488.06;5031495;28;827;-64
2023/05/30 04:54:47;;;;;;;;;;;;;;;19.41;100.00;99500.47;5031458;28;1925;-64
2023/05/30 04:57:14;;;;;;;;;;;;;;;19.58;100.00;99499.63;5030248;28;1267;-64
2023/05/30 04:59:41;;;;;;;;;;;;;;;19.78;100.00;99507.53;5031391;28;874;-64
2023/05/30 05:02:08;;;;;;;;;;;;;;;19.94;100.00;99502.81;5031306;28;886;-64
2023/05/30 05:04:35;;;;;;;;;;;;;;;20.02;100.00;99500.44;5031266;28;863;-64
2023/05/30 05:07:02;;;;;;;;;;;;;;;20.16;100.00;99508.13;5031333;28;894;-64
2023/05/30 05:09:29;;;;;;;;;;;;;;;20.47;100.00;99505.00;5031474;28;936;-64
2023/05/30 05:11:56;;;;;;;;;;;;;;;21.23;100.00;99504.72;5031200;28;1295;-64
2023/05/30 05:14:23;;;;;;;;;;;;;;;21.37;100.00;99503.19;5031056;28;1923;-64
2023/05/30 05:16:49;;;;;;;;;;;;;;;21.33;100.00;99511.78;5031271;28;847;-64
2023/05/30 05:19:17;;;;;;;;;;;;;;;21.35;100.00;99509.28;5031134;28;883;-63
2023/05/30 05:21:44;;;;;;;;;;;;;;;21.29;100.00;99502.00;5031243;28;836;-64
2023/05/30 05:24:10;;;;;;;;;;;;;;;20.87;100.00;99501.00;5031181;28;815;-62
2023/05/30 05:26:37;;;;;;;;;;;;;;;20.45;100.00;99501.13;5031201;28;832;-65
2023/05/30 05:29:04;;;;;;;;;;;;;;;20.46;100.00;99505.47;5031026;28;852;-64
2023/05/30 05:31:32;;;;;;;;;;;;;;;20.72;100.00;99503.00;5031055;28;863;-63
2023/05/30 05:33:59;;;;;;;;;;;;;;;20.73;100.00;99510.91;5030996;28;1894;-65
2023/05/30 05:36:26;;;;;;;;;;;;;;;20.81;100.00;99511.34;5030937;28;824;-63
2023/05/30 05:38:53;;;;;;;;;;;;;;;21.12;100.00;99507.31;5031303;28;856;-63
2023/05/30 05:41:20;;;;;;;;;;;;;;;21.24;100.00;99516.75;5031636;28;903;-63
2023/05/30 05:43:47;;;;;;;;;;;;;;;21.48;100.00;99516.69;5034787;28;874;-64
2023/05/30 05:46:14;;;;;;;;;;;;;;;21.49;100.00;99504.97;5033326;28;804;-63
2023/05/30 05:48:41;;;;;;;;;;;;;;;21.52;100.00;99508.81;5034606;28;1023;-64
2023/05/30 05:51:08;;;;;;;;;;;;;;;21.79;100.00;99514.13;5034410;28;868;-65
2023/05/30 05:53:36;;;;;;;;;;;;;;;21.79;100.00;99516.94;5033139;28;1897;-62
2023/05/30 05:56:03;;;;;;;;;;;;;;;22.12;100.00;99521.53;5034410;28;864;-64
2023/05/30 05:58:29;;;;;;;;;;;;;;;22.55;100.00;99524.75;5034410;28;936;-62
2023/05/30 06:00:56;;;;;;;;;;;;;;;22.89;100.00;99519.50;5034300;28;880;-63
2023/05/30 06:03:23;;;;;;;;;;;;;;;22.99;100.00;99526.53;5034305;28;836;-63
2023/05/30 06:05:50;;;;;;;;;;;;;;;23.17;100.00;99531.13;5034274;28;896;-63
2023/05/30 06:08:17;;;;;;;;;;;;;;;23.20;100.00;99530.13;5034270;28;958;-64
2023/05/30 06:10:43;;;;;;;;;;;;;;;23.38;100.00;99526.19;5033927;28;1365;-64
2023/05/30 06:13:10;;;;;;;;;;;;;;;23.59;100.00;99526.13;5034030;28;1914;-62
2023/05/30 06:15:37;;;;;;;;;;;;;;;23.94;100.00;99537.22;5034336;28;875;-64
2023/05/30 06:18:04;;;;;;;;;;;;;;;23.90;100.00;99530.25;5034013;28;914;-64
2023/05/30 06:20:31;;;;;;;;;;;;;;;23.65;100.00;99535.41;5033922;28;836;-64
2023/05/30 06:22:58;;;;;;;;;;;;;;;23.82;100.00;99542.00;5032649;28;876;-64
2023/05/30 06:25:26;;;;;;;;;;;;;;;24.16;100.00;99538.66;5033982;28;891;-63
2023/05/30 06:27:52;;;;;;;;;;;;;;;24.63;100.00;99525.84;5033977;28;877;-65
2023/05/30 06:30:19;;;;;;;;;;;;;;;25.16;100.00;99531.94;5033876;28;832;-63
2023/05/30 06:32:46;;;;;;;;;;;;;;;25.44;100.00;99528.41;5033766;28;844;-65
2023/05/30 06:35:13;;;;;;;;;;;;;;;25.74;100.00;99527.94;5033601;28;1975;-65
2023/05/30 06:37:41;;;;;;;;;;;;;;;25.93;100.00;99528.22;5033726;28;860;-64
2023/05/30 06:40:08;;;;;;;;;;;;;;;26.13;100.00;99529.97;5033558;28;863;-65
2023/05/30 06:42:35;;;;;;;;;;;;;;;26.08;100.00;99523.03;5033668;28;982;-65
2023/05/30 06:45:01;;;;;;;;;;;;;;;26.38;100.00;99540.22;5033579;28;922;-66
2023/05/30 06:47:28;;;;;;;;;;;;;;;26.99;100.00;99532.81;5033501;28;803;-65
2023/05/30 06:49:56;;;;;;;;;;;;;;;28.32;100.00;99542.16;5033387;28;1057;-65
2023/05/30 06:52:22;;;;;;;;;;;;;;;26.98;100.00;99545.44;5033258;28;911;-65
2023/05/30 06:54:49;;;;;;;;;;;;;;;25.88;100.00;99549.50;5032718;28;1949;-65
2023/05/30 06:57:16;;;;;;;;;;;;;;;26.43;100.00;99547.16;5033344;28;851;-64
2023/05/30 06:59:43;;;;;;;;;;;;;;;26.11;100.00;99546.72;5033238;28;848;-65
2023/05/30 07:02:10;;;;;;;;;;;;;;;27.63;100.00;99548.91;5033318;28;910;-66
2023/05/30 07:04:37;;;;;;;;;;;;;;;28.36;100.00;99547.50;5033241;28;930;-66
2023/05/30 07:07:04;;;;;;;;;;;;;;;29.60;99.93;99543.13;5033313;28;784;-65
2023/05/30 07:09:31;;;;;;;;;;;;;;;30.68;95.26;99546.41;5033470;28;1083;-67
2023/05/30 07:11:58;;;;;;;;;;;;;;;31.93;91.48;99544.38;5032959;28;1471;-65
2023/05/30 07:14:25;;;;;;;;;;;;;;;31.46;68.25;99548.88;5032944;28;1977;-65
2023/05/30 07:16:52;;;;;;;;;;;;;;;30.86;68.05;99552.53;5032939;28;931;-64
2023/05/30 07:19:19;;;;;;;;;;;;;;;28.94;70.79;99560.59;5032838;28;880;-64
2023/05/30 07:21:46;;;;;;;;;;;;;;;28.06;71.10;99557.63;5032847;28;832;-65
2023/05/30 07:24:13;;;;;;;;;;;;;;;27.61;76.20;99549.47;5032791;28;921;-65
2023/05/30 07:26:40;;;;;;;;;;;;;;;27.05;76.11;99547.72;5032808;28;844;-64
2023/05/30 07:29:07;;;;;;;;;;;;;;;26.65;76.98;99558.47;5032716;28;871;-64
2023/05/30 07:31:33;;;;;;;;;;;;;;;26.57;75.73;99548.97;5032707;28;995;-64
2023/05/30 07:34:01;;;;;;;;;;;;;;;26.54;75.99;99558.44;5032494;28;1947;-64
2023/05/30 07:36:27;;;;;;;;;;;;;;;25.83;80.05;99562.38;5032617;28;848;-65
2023/05/30 07:38:54;;;;;;;;;;;;;;;25.79;83.70;99559.03;5032533;28;879;-65
2023/05/30 07:41:22;;;;;;;;;;;;;;;26.41;81.95;99561.84;5031157;28;1167;-64
2023/05/30 07:43:49;;;;;;;;;;;;;;;27.09;75.20;99565.22;5032419;28;824;-65
2023/05/30 07:46:16;;;;;;;;;;;;;;;26.62;77.13;99564.41;5032397;28;835;-65
2023/05/30 07:48:43;;;;;;;;;;;;;;;26.49;78.13;99574.19;5032487;28;885;-66
2023/05/30 07:51:12;;;;;;;;;;;;;;;27.09;76.01;99573.72;5032325;28;824;-65
2023/05/30 07:53:39;;;;;;;;;;;;;;;28.84;70.23;99566.63;5032168;28;1886;-66
2023/05/30 07:56:06;;;;;;;;;;;;;;;29.71;66.93;99575.03;5032150;28;899;-64
2023/05/30 07:58:33;;;;;;;;;;;;;;;29.99;63.71;99573.06;5032210;28;879;-64
2023/05/30 08:01:00;;;;;;;;;;;;;;;28.06;66.85;99586.03;5032325;28;867;-65
2023/05/30 08:03:25;;;;;;;;;;;;;;;26.73;74.34;99574.94;5032389;28;884;-66
2023/05/30 08:05:52;;;;;;;;;;;;;;;26.39;78.03;99587.06;5031856;28;801;-66
2023/05/30 08:08:19;;;;;;;;;;;;;;;26.07;76.83;99576.06;5032042;28;915;-65
2023/05/30 08:10:46;;;;;;;;;;;;;;;25.59;77.23;99574.22;5031606;28;1298;-65
2023/05/30 08:13:14;;;;;;;;;;;;;;;24.95;80.54;99585.06;5031916;28;1977;-65
2023/05/30 08:15:41;;;;;;;;;;;;;;;24.40;83.87;99583.47;5032141;28;793;-66
2023/05/30 08:18:08;;;;;;;;;;;;;;;24.34;86.32;99582.66;5031775;28;891;-65
2023/05/30 08:20:38;;;;;;;;;;;;;;;24.06;87.25;99580.41;5031775;28;828;-64
2023/05/30 08:23:05;;;;;;;;;;;;;;;23.92;89.02;99582.09;5031726;28;887;-66
2023/05/30 08:25:36;;;;;;;;;;;;;;;23.99;89.93;99576.00;5031733;28;891;-65
2023/05/30 08:28:03;;;;;;;;;;;;;;;23.86;90.93;99581.28;5031947;28;895;-66
2023/05/30 08:30:30;;;;;;;;;;;;;;;23.95;91.21;99580.34;5032031;28;828;-66
2023/05/30 08:32:57;;;;;;;;;;;;;;;24.19;91.58;99580.00;5031821;28;832;-65
2023/05/30 08:35:24;;;;;;;;;;;;;;;24.49;91.43;99577.63;5031910;28;1943;-65
2023/05/30 08:37:51;;;;;;;;;;;;;;;24.62;89.56;99578.00;5032460;28;780;-64
2023/05/30 08:40:19;;;;;;;;;;;;;;;24.42;86.64;99584.50;5032057;28;828;-67
2023/05/30 08:42:45;;;;;;;;;;;;;;;24.55;86.57;99575.63;5031825;28;859;-65
2023/05/30 08:45:13;;;;;;;;;;;;;;;24.69;85.33;99575.94;5031769;28;856;-65
2023/05/30 08:47:39;;;;;;;;;;;;;;;24.95;85.15;99576.59;5031751;28;835;-66
2023/05/30 08:50:09;;;;;;;;;;;;;;;25.00;84.55;99580.72;5031673;28;832;-66
2023/05/30 08:52:38;;;;;;;;;;;;;;;24.69;84.63;99578.78;5031437;28;882;-66
2023/05/30 08:55:10;;;;;;;;;;;;;;;24.39;85.18;99590.41;5031340;28;1882;-65
2023/05/30 08:57:43;;;;;;;;;;;;;;;24.27;84.81;99589.56;5031419;28;895;-66
2023/05/30 09:00:11;;;;;;;;;;;;;;;24.54;84.97;99579.75;5031325;28;891;-65
2023/05/30 09:02:38;;;;;;;;;;;;;;;24.75;84.55;99585.22;5030203;28;1296;-65
2023/05/30 09:05:06;;;;;;;;;;;;;;;24.66;83.66;99583.38;5031288;28;855;-66
2023/05/30 09:07:34;;;;;;;;;;;;;;;24.68;81.34;99577.25;5031276;28;902;-65
2023/05/30 09:10:01;;;;;;;;;;;;;;;24.64;80.18;99583.91;5031377;28;1235;-65
2023/05/30 09:12:31;;;;;;;;;;;;;;;24.85;80.21;99580.91;5031366;28;811;-64
2023/05/30 09:14:58;;;;;;;;;;;;;;;25.06;78.99;99576.63;5031309;28;1903;-66
2023/05/30 09:17:25;;;;;;;;;;;;;;;25.17;77.12;99581.53;5033966;28;804;-67
2023/05/30 09:19:53;;;;;;;;;;;;;;;25.43;77.81;99574.94;5035372;28;935;-66
2023/05/30 09:22:21;;;;;;;;;;;;;;;25.60;79.29;99581.41;5035042;28;823;-65
2023/05/30 09:24:58;;;;;;;;;;;;;;;25.76;78.51;99587.63;5035092;28;855;-65
2023/05/30 09:27:25;;;;;;;;;;;;;;;25.62;79.47;99587.31;5035291;28;864;-64
2023/05/30 09:29:52;;;;;;;;;;;;;;;25.32;80.16;99584.19;5034936;28;875;-65
2023/05/30 09:32:21;;;;;;;;;;;;;;;25.10;82.30;99589.75;5034868;28;868;-65
2023/05/30 09:34:56;;;;;;;;;;;;;;;24.94;84.31;99583.50;5034879;28;1949;-65
2023/05/30 09:37:34;;;;;;;;;;;;;;;25.18;84.28;99585.16;5034861;28;836;-64
2023/05/30 10:11:03;;;;;;;;;;;;;;;27.54;72.28;99577.63;5352043;22;1659;-56
2023/05/30 10:13:30;;;;;;;;;;;;;;;27.80;69.74;99565.81;5034089;28;1910;-55
2023/05/30 10:15:57;;;;;;;;;;;;;;;27.85;67.59;99562.19;5034402;28;864;-56
2023/05/30 10:18:24;;;;;;;;;;;;;;;27.65;66.05;99564.16;5034071;28;812;-56
2023/05/30 10:20:51;;;;;;;;;;;;;;;27.70;67.17;99549.13;5034436;28;800;-55
2023/05/30 10:23:19;;;;;;;;;;;;;;;27.91;66.81;99545.91;5033987;28;831;-55
2023/05/30 10:25:50;;;;;;;;;;;;;;;27.84;67.80;99550.03;5033949;28;876;-55
2023/05/30 10:28:26;;;;;;;;;;;;;;;28.09;68.60;99541.59;5032751;28;792;-55
2023/05/30 10:30:53;;;;;;;;;;;;;;;28.44;67.13;99535.03;5033832;28;925;-55
2023/05/30 10:33:20;;;;;;;;;;;;;;;28.12;63.24;99534.84;5033765;28;1890;-55
2023/05/30 10:35:47;;;;;;;;;;;;;;;27.51;64.21;99539.75;5033794;28;902;-55
2023/05/30 10:38:14;;;;;;;;;;;;;;;27.32;65.19;99544.50;5033752;28;824;-54
2023/05/30 10:40:51;;;;;;;;;;;;;;;27.25;66.54;99538.09;5033565;28;876;-55
2023/05/30 10:43:23;;;;;;;;;;;;;;;27.28;66.50;99536.28;5032411;28;906;-55
2023/05/30 10:45:50;;;;;;;;;;;;;;;27.43;64.04;99533.84;5033603;28;800;-56
2023/05/30 11:00:30;;;;;;;;;;;;;;;28.33;63.44;99537.22;5033699;28;635;-55
2023/05/30 11:02:57;;;;;;;;;;;;;;;28.82;63.22;99526.59;5033311;28;871;-56
2023/05/30 11:05:27;;;;;;;;;;;;;;;29.08;61.94;99525.22;5033247;28;863;-56
2023/05/30 11:07:56;;;;;;;;;;;;;;;28.95;58.74;99513.75;5033249;28;871;-55
2023/05/30 11:10:26;;;;;;;;;;;;;;;28.70;58.95;99511.75;5031553;28;1211;-55
2023/05/30 11:13:06;;;;;;;;;;;;;;;29.08;60.19;99513.81;5033097;28;898;-55
2023/05/30 11:15:33;;;;;;;;;;;;;;;29.67;58.59;99506.22;5033071;28;948;-56
2023/05/30 11:18:00;;;;;;;;;;;;;;;30.41;56.96;99505.72;5032972;28;840;-56
2023/05/30 11:20:28;;;;;;;;;;;;;;;30.60;55.53;99511.31;5032973;28;828;-55
2023/05/30 11:23:04;;;;;;;;;;;;;;;29.97;56.86;99507.31;5031581;28;907;-56
2023/05/30 11:25:32;;;;;;;;;;;;;;;29.32;57.56;99498.78;5032865;28;792;-56
2023/05/30 11:28:13;;;;;;;;;;;;;;;28.90;58.05;99495.47;5032757;28;882;-56
2023/05/30 11:30:47;;;;;;;;;;;;;;;29.01;59.21;99498.16;5032743;28;878;-56
2023/05/30 11:33:16;;;;;;;;;;;;;;;29.89;57.55;99493.72;5032934;28;1952;-55
2023/05/30 11:35:49;;;;;;;;;;;;;;;30.13;55.01;99495.59;5032763;28;848;-56
2023/05/30 11:38:19;;;;;;;;;;;;;;;30.21;53.89;99500.63;5032587;28;871;-56
2023/05/30 11:40:46;;;;;;;;;;;;;;;30.57;52.83;99488.81;5032105;28;1795;-56
2023/05/30 11:43:17;;;;;;;;;;;;;;;30.71;51.89;99499.66;5032438;28;985;-56
2023/05/30 11:45:46;;;;;;;;;;;;;;;29.08;54.28;99506.09;5032370;28;804;-56
2023/05/30 11:48:13;;;;;;;;;;;;;;;27.61;56.76;99508.94;5032442;28;812;-56
2023/05/30 11:50:40;;;;;;;;;;;;;;;26.91;59.66;99497.78;5032348;28;812;-56
2023/05/30 11:53:11;;;;;;;;;;;;;;;27.63;58.57;99500.66;5032395;28;850;-54
2023/05/30 11:55:38;;;;;;;;;;;;;;;28.32;57.23;99499.53;5032234;28;828;-56
2023/05/30 11:58:05;;;;;;;;;;;;;;;29.03;56.52;99483.41;5032223;28;863;-56
2023/05/30 12:00:32;;;;;;;;;;;;;;;29.56;54.44;99492.19;5032174;28;840;-56
2023/05/30 12:02:59;;;;;;;;;;;;;;;29.10;55.22;99502.72;5032155;28;816;-56
2023/05/30 12:05:26;;;;;;;;;;;;;;;28.37;55.13;99503.59;5032152;28;906;-55
2023/05/30 12:07:53;;;;;;;;;;;;;;;28.51;55.23;99499.59;5031922;28;909;-56
2023/05/30 12:10:29;;;;;;;;;;;;;;;28.55;56.15;99497.22;5031954;28;1445;-56
2023/05/30 12:12:56;;;;;;;;;;;;;;;28.23;57.54;99502.69;5031980;28;862;-56
2023/05/30 12:15:23;;;;;;;;;;;;;;;28.29;58.30;99501.38;5031872;28;1903;-56
2023/05/30 12:17:51;;;;;;;;;;;;;;;27.82;58.98;99509.28;5031943;28;795;-56
2023/05/30 12:20:20;;;;;;;;;;;;;;;27.51;59.75;99502.84;5031917;28;926;-56
2023/05/30 12:22:47;;;;;;;;;;;;;;;27.28;60.35;99513.56;5031775;28;944;-56
2023/05/30 12:25:13;;;;;;;;;;;;;;;27.12;60.34;99514.41;5031795;28;943;-56
2023/05/30 12:27:44;;;;;;;;;;;;;;;27.07;60.43;99519.59;5032050;28;824;-56
2023/05/30 12:30:12;;;;;;;;;;;;;;;27.06;60.47;99525.81;5031676;28;827;-56
2023/05/30 12:32:39;;;;;;;;;;;;;;;26.93;61.11;99539.78;5031674;28;926;-56
2023/05/30 12:35:06;;;;;;;;;;;;;;;26.43;61.63;99533.75;5031563;28;1886;-56
2023/05/30 12:37:33;;;;;;;;;;;;;;;26.65;62.16;99530.13;5031488;28;867;-56
2023/05/30 12:40:00;;;;;;;;;;;;;;;27.19;60.54;99530.91;5031595;28;820;-56
2023/05/30 12:42:28;;;;;;;;;;;;;;;27.21;60.97;99536.81;5031822;28;867;-56
2023/05/30 12:44:58;;;;;;;;;;;;;;;26.81;62.24;99533.41;5031523;28;895;-56
2023/05/30 12:47:25;;;;;;;;;;;;;;;26.40;64.05;99537.63;5031565;28;855;-56
2023/05/30 12:49:53;;;;;;;;;;;;;;;26.04;65.51;99536.69;5031461;28;831;-56
2023/05/30 12:52:24;;;;;;;;;;;;;;;25.38;67.79;99538.94;5030813;28;831;-56
2023/05/30 12:54:51;;;;;;;;;;;;;;;25.06;69.62;99539.88;5031500;28;1890;-56
2023/05/30 12:57:19;;;;;;;;;;;;;;;24.98;70.57;99527.50;5031393;28;836;-56
2023/05/30 12:59:46;;;;;;;;;;;;;;;24.89;70.65;99533.41;5031436;28;819;-56
2023/05/30 13:02:13;;;;;;;;;;;;;;;24.76;71.29;99522.56;5031271;28;885;-56
2023/05/30 13:04:41;;;;;;;;;;;;;;;24.76;72.18;99513.31;5031405;28;883;-56
2023/05/30 13:07:09;;;;;;;;;;;;;;;24.57;74.02;99533.53;5031245;28;879;-56
2023/05/30 13:09:36;;;;;;;;;;;;;;;24.14;75.53;99553.28;5031383;28;1021;-56
2023/05/30 13:12:04;;;;;;;;;;;;;;;23.67;77.50;99551.84;5034967;28;1291;-56
2023/05/30 13:14:31;;;;;;;;;;;;;;;23.13;81.18;99563.59;5031200;28;1914;-55
2023/05/30 13:16:58;;;;;;;;;;;;;;;21.92;93.45;99567.28;5031163;28;922;-59
2023/05/30 13:19:26;;;;;;;;;;;;;;;20.61;100.00;99582.13;5031282;28;808;-58
2023/05/30 13:21:53;;;;;;;;;;;;;;;19.78;100.00;99579.69;5031227;28;845;-58
2023/05/30 13:24:20;;;;;;;;;;;;;;;19.41;100.00;99581.72;5031122;28;813;-59
2023/05/30 13:26:48;;;;;;;;;;;;;;;19.14;100.00;99578.47;5031183;28;859;-60
2023/05/30 13:29:15;;;;;;;;;;;;;;;19.35;100.00;99590.78;5031139;28;875;-60
2023/05/30 13:31:43;;;;;;;;;;;;;;;19.62;100.00;99602.41;5031284;28;871;-60
2023/05/30 13:34:11;;;;;;;;;;;;;;;19.72;100.00;99610.38;5031244;28;1945;-59
2023/05/30 13:36:38;;;;;;;;;;;;;;;19.89;100.00;99618.44;5031047;28;883;-59
2023/05/30 13:39:08;;;;;;;;;;;;;;;20.22;100.00;99624.09;5031003;28;870;-59
2023/05/30 13:41:35;;;;;;;;;;;;;;;20.93;100.00;99625.47;5031039;28;926;-59
2023/05/30 13:44:03;;;;;;;;;;;;;;;21.63;100.00;99629.94;5030930;28;867;-59
2023/05/30 13:46:30;;;;;;;;;;;;;;;22.27;100.00;99625.66;5030915;28;820;-58